Time;durP1;ratioP1;P1;durP2;ratioP2;P2;SDS_P1;SDS_P2;PMS_P1;PMS_P2;Temp;Humidity;BMP_temperature;BMP_pressure;BME280_temperature;BME280_humidity;BME280_pressure;Samples;Min_cycle;Max_cycle;Signal;HPM_P1;HPM_P2
2023/12/07 00:01:09;;;;;;;154.23;77.47;;;;;;;;;;4401831;32;319629;-73
2023/12/07 00:03:38;;;;;;;145.30;76.53;;;;;;;;;;4391422;32;319644;-73
2023/12/07 00:06:05;;;;;;;155.33;77.17;;;;;;;;;;4400148;32;334459;-73
2023/12/07 00:08:32;;;;;;;137.27;72.87;;;;;;;;;;4391442;32;319665;-73
2023/12/07 00:10:58;;;;;;;144.17;77.30;;;;;;;;;;4400791;32;319604;-73
2023/12/07 00:13:25;;;;;;;154.73;84.43;;;;;;;;;;4390418;32;319945;-73
2023/12/07 00:15:52;;;;;;;151.57;79.00;;;;;;;;;;4401526;32;319033;-74
2023/12/07 00:18:19;;;;;;;146.53;78.90;;;;;;;;;;4400624;32;319475;-73
2023/12/07 00:20:47;;;;;;;149.47;79.00;;;;;;;;;;4387049;32;418547;-73
2023/12/07 00:23:14;;;;;;;146.07;75.97;;;;;;;;;;4401800;32;319329;-73
2023/12/07 00:25:41;;;;;;;152.67;74.67;;;;;;;;;;4391347;32;319491;-73
2023/12/07 00:28:08;;;;;;;150.17;78.40;;;;;;;;;;4401718;32;319576;-73
2023/12/07 00:30:35;;;;;;;157.20;80.47;;;;;;;;;;4391137;32;320032;-73
2023/12/07 00:33:02;;;;;;;156.03;80.50;;;;;;;;;;4401567;32;319700;-73
2023/12/07 00:35:29;;;;;;;149.33;81.43;;;;;;;;;;4390940;32;319849;-73
2023/12/07 00:37:58;;;;;;;142.00;74.37;;;;;;;;;;4401354;32;318762;-73
2023/12/07 00:40:25;;;;;;;122.83;72.43;;;;;;;;;;4388260;32;319382;-73
2023/12/07 00:42:52;;;;;;;116.53;65.80;;;;;;;;;;4401625;32;323957;-74
2023/12/07 00:45:19;;;;;;;115.80;66.40;;;;;;;;;;4401331;32;319588;-73
2023/12/07 00:47:46;;;;;;;97.30;59.13;;;;;;;;;;4388122;32;418535;-73
2023/12/07 00:50:15;;;;;;;91.00;55.60;;;;;;;;;;4400859;32;319263;-73
2023/12/07 00:52:42;;;;;;;89.27;53.73;;;;;;;;;;4391148;32;318300;-73
2023/12/07 00:55:10;;;;;;;91.50;50.50;;;;;;;;;;4401488;32;318357;-73
2023/12/07 00:57:37;;;;;;;75.63;46.53;;;;;;;;;;4389307;32;318577;-73
2023/12/07 01:00:05;;;;;;;62.67;41.13;;;;;;;;;;4400128;32;317700;-74
2023/12/07 01:02:32;;;;;;;74.50;45.83;;;;;;;;;;4391336;32;318827;-74
2023/12/07 01:04:59;;;;;;;70.23;39.97;;;;;;;;;;4401518;32;318453;-73
2023/12/07 01:07:26;;;;;;;57.23;37.13;;;;;;;;;;4389886;32;317724;-73
2023/12/07 01:09:53;;;;;;;56.80;34.47;;;;;;;;;;4406399;32;317860;-73
2023/12/07 01:12:22;;;;;;;54.47;33.10;;;;;;;;;;4391409;32;318503;-72
2023/12/07 01:14:49;;;;;;;50.30;32.67;;;;;;;;;;4401294;32;318404;-73
2023/12/07 01:17:16;;;;;;;45.07;30.67;;;;;;;;;;4401559;32;318205;-73
2023/12/07 01:19:42;;;;;;;54.30;32.87;;;;;;;;;;4390588;32;318141;-73
2023/12/07 01:22:09;;;;;;;49.00;32.03;;;;;;;;;;4401220;32;318096;-74
2023/12/07 01:24:36;;;;;;;85.10;47.70;;;;;;;;;;4390929;32;318351;-74
2023/12/07 01:27:03;;;;;;;85.37;51.07;;;;;;;;;;4400414;32;318503;-73
2023/12/07 01:29:32;;;;;;;92.40;55.37;;;;;;;;;;4391321;32;317825;-72
2023/12/07 01:31:59;;;;;;;96.80;57.90;;;;;;;;;;4401302;32;318288;-73
2023/12/07 01:34:25;;;;;;;104.03;56.40;;;;;;;;;;4390748;32;317668;-73
2023/12/07 01:36:52;;;;;;;97.17;53.40;;;;;;;;;;4401153;32;319234;-73
2023/12/07 01:39:20;;;;;;;95.70;57.03;;;;;;;;;;4400870;32;318153;-73
2023/12/07 01:41:47;;;;;;;99.03;58.97;;;;;;;;;;4388262;32;417161;-74
2023/12/07 01:44:14;;;;;;;101.80;60.20;;;;;;;;;;4401178;32;318377;-73
2023/12/07 01:46:43;;;;;;;99.60;57.73;;;;;;;;;;4390817;32;319312;-73
2023/12/07 01:49:10;;;;;;;98.47;57.00;;;;;;;;;;4402810;32;318280;-73
2023/12/07 01:51:38;;;;;;;109.07;58.50;;;;;;;;;;4393583;32;318370;-74
2023/12/07 01:54:05;;;;;;;101.83;55.97;;;;;;;;;;4403685;32;319269;-76
2023/12/07 01:56:32;;;;;;;101.43;57.57;;;;;;;;;;4392476;32;319271;-74
2023/12/07 01:58:59;;;;;;;99.37;59.03;;;;;;;;;;4403557;32;319328;-74
2023/12/07 02:01:27;;;;;;;100.40;57.20;;;;;;;;;;4393391;32;317564;-73
2023/12/07 02:03:55;;;;;;;97.60;57.60;;;;;;;;;;4402668;32;318480;-74
2023/12/07 02:06:22;;;;;;;88.87;53.90;;;;;;;;;;4392998;32;318260;-72
2023/12/07 02:08:49;;;;;;;78.13;46.90;;;;;;;;;;4402230;32;318597;-74
2023/12/07 02:11:16;;;;;;;74.70;44.67;;;;;;;;;;4402318;32;318080;-73
2023/12/07 02:13:43;;;;;;;67.83;42.93;;;;;;;;;;4393135;32;318298;-74
2023/12/07 02:16:18;;;;;;;67.70;42.83;;;;;;;;;;4403375;32;318365;-74
2023/12/07 02:18:52;;;;;;;68.87;41.23;;;;;;;;;;4390545;32;417659;-73
2023/12/07 02:21:27;;;;;;;76.10;42.33;;;;;;;;;;4403590;32;318370;-73
2023/12/07 02:23:55;;;;;;;77.33;42.67;;;;;;;;;;4390524;32;417519;-75
2023/12/07 02:26:25;;;;;;;72.50;41.83;;;;;;;;;;4392161;32;318231;-73
2023/12/07 02:28:53;;;;;;;66.97;42.33;;;;;;;;;;4400912;32;351686;-75
2023/12/07 02:31:23;;;;;;;77.10;43.27;;;;;;;;;;4394911;32;318095;-75
2023/12/07 02:33:50;;;;;;;65.27;41.33;;;;;;;;;;4400728;32;318159;-73
2023/12/07 02:36:23;;;;;;;66.23;39.10;;;;;;;;;;4401004;32;347484;-73
2023/12/07 02:38:52;;;;;;;71.93;41.27;;;;;;;;;;4390105;32;419829;-73
2023/12/07 02:41:19;;;;;;;74.50;45.50;;;;;;;;;;4403300;32;317838;-74
2023/12/07 02:43:46;;;;;;;78.63;46.70;;;;;;;;;;4388877;32;419176;-74
2023/12/07 02:46:15;;;;;;;96.37;51.23;;;;;;;;;;4403225;32;318343;-75
2023/12/07 02:48:42;;;;;;;88.97;52.60;;;;;;;;;;4392655;32;318257;-74
2023/12/07 02:51:08;;;;;;;87.23;51.40;;;;;;;;;;4402853;32;318068;-74
2023/12/07 02:53:35;;;;;;;67.07;42.40;;;;;;;;;;4392926;32;318237;-75
2023/12/07 02:56:02;;;;;;;66.10;42.03;;;;;;;;;;4403050;32;318079;-74
2023/12/07 02:58:29;;;;;;;86.57;49.23;;;;;;;;;;4390899;32;318051;-73
2023/12/07 03:00:56;;;;;;;97.63;55.07;;;;;;;;;;4400479;32;318388;-74
2023/12/07 03:03:25;;;;;;;91.27;52.27;;;;;;;;;;4392839;32;318400;-73
2023/12/07 03:05:52;;;;;;;88.37;50.30;;;;;;;;;;4402451;32;318070;-74
2023/12/07 03:08:19;;;;;;;95.13;49.43;;;;;;;;;;4402610;32;317822;-74
2023/12/07 03:10:45;;;;;;;83.83;49.33;;;;;;;;;;4392369;32;318464;-74
2023/12/07 03:13:12;;;;;;;82.70;47.43;;;;;;;;;;4402687;32;318366;-74
2023/12/07 03:15:39;;;;;;;91.03;49.43;;;;;;;;;;4391478;32;318747;-74
2023/12/07 03:18:07;;;;;;;80.03;46.60;;;;;;;;;;4401387;32;318431;-74
2023/12/07 03:20:36;;;;;;;76.33;45.57;;;;;;;;;;4392176;32;317805;-75
2023/12/07 03:23:04;;;;;;;84.67;47.63;;;;;;;;;;4402438;32;318348;-74
2023/12/07 03:25:31;;;;;;;87.37;45.87;;;;;;;;;;4383535;32;317690;-74
2023/12/07 03:27:58;;;;;;;85.97;48.80;;;;;;;;;;4402235;32;318017;-74
2023/12/07 03:30:24;;;;;;;92.30;48.13;;;;;;;;;;4392134;32;317800;-73
2023/12/07 03:32:51;;;;;;;91.33;47.63;;;;;;;;;;4402422;32;318332;-75
2023/12/07 03:35:18;;;;;;;82.27;47.63;;;;;;;;;;4400844;32;318390;-75
2023/12/07 03:37:47;;;;;;;97.27;51.10;;;;;;;;;;4388444;32;417798;-76
2023/12/07 03:40:14;;;;;;;95.23;49.47;;;;;;;;;;4401837;32;317923;-74
2023/12/07 03:42:41;;;;;;;93.53;51.63;;;;;;;;;;4391108;32;318487;-74
2023/12/07 03:45:09;;;;;;;91.50;50.13;;;;;;;;;;4401771;32;317671;-74
2023/12/07 03:47:36;;;;;;;92.67;50.50;;;;;;;;;;4391944;32;317448;-75
2023/12/07 03:50:03;;;;;;;97.13;52.47;;;;;;;;;;4401935;32;318396;-75
2023/12/07 03:52:29;;;;;;;104.50;55.97;;;;;;;;;;4391716;32;317403;-75
2023/12/07 03:54:58;;;;;;;98.40;54.53;;;;;;;;;;4393575;32;317550;-74
2023/12/07 03:57:25;;;;;;;90.60;52.23;;;;;;;;;;4391369;32;318234;-74
2023/12/07 03:59:53;;;;;;;97.67;53.43;;;;;;;;;;4401992;32;318258;-74
2023/12/07 04:02:20;;;;;;;94.17;51.23;;;;;;;;;;4401881;32;318340;-75
2023/12/07 04:04:50;;;;;;;103.20;53.13;;;;;;;;;;4388795;32;417698;-74
2023/12/07 04:07:16;;;;;;;103.40;56.80;;;;;;;;;;4402063;32;318558;-75
2023/12/07 04:09:45;;;;;;;112.23;56.43;;;;;;;;;;4390029;32;319922;-74
2023/12/07 04:12:13;;;;;;;100.27;56.63;;;;;;;;;;4401657;32;318841;-74
2023/12/07 04:14:40;;;;;;;99.00;56.70;;;;;;;;;;4391587;32;319347;-74
2023/12/07 04:17:07;;;;;;;90.17;52.20;;;;;;;;;;4401827;32;318398;-74
2023/12/07 04:19:34;;;;;;;93.97;54.37;;;;;;;;;;4391479;32;318391;-75
2023/12/07 04:22:01;;;;;;;108.47;54.17;;;;;;;;;;4401815;32;318429;-75
2023/12/07 04:24:27;;;;;;;97.80;54.33;;;;;;;;;;4391477;32;319425;-76
2023/12/07 04:26:55;;;;;;;94.07;54.63;;;;;;;;;;4400220;32;317492;-74
2023/12/07 04:29:24;;;;;;;100.23;55.33;;;;;;;;;;4390555;32;318331;-73
2023/12/07 04:31:51;;;;;;;107.87;54.63;;;;;;;;;;4401642;32;319391;-74
2023/12/07 04:34:18;;;;;;;92.50;52.50;;;;;;;;;;4401636;32;319451;-74
2023/12/07 04:36:45;;;;;;;101.67;53.80;;;;;;;;;;4391011;32;318406;-74
2023/12/07 04:39:12;;;;;;;97.60;53.23;;;;;;;;;;4401525;32;319465;-75
2023/12/07 04:41:39;;;;;;;100.23;52.83;;;;;;;;;;4391268;32;318657;-75
2023/12/07 04:44:06;;;;;;;91.97;49.83;;;;;;;;;;4401435;32;319238;-75
2023/12/07 04:46:35;;;;;;;93.43;51.33;;;;;;;;;;4391169;32;317464;-75
2023/12/07 04:49:02;;;;;;;99.60;51.47;;;;;;;;;;4401410;32;318412;-74
2023/12/07 04:51:29;;;;;;;99.80;51.97;;;;;;;;;;4391138;32;318364;-74
2023/12/07 04:53:56;;;;;;;99.87;51.23;;;;;;;;;;4401478;32;318343;-75
2023/12/07 04:56:23;;;;;;;90.80;49.47;;;;;;;;;;4391431;32;317687;-73
2023/12/07 04:58:53;;;;;;;78.07;45.27;;;;;;;;;;4400595;32;318372;-74
2023/12/07 05:01:20;;;;;;;72.40;44.53;;;;;;;;;;4401106;32;318949;-75
2023/12/07 05:03:48;;;;;;;103.33;54.90;;;;;;;;;;4388111;32;417980;-74
2023/12/07 05:06:15;;;;;;;93.90;54.97;;;;;;;;;;4401320;32;318984;-75
2023/12/07 05:08:43;;;;;;;103.47;57.53;;;;;;;;;;4390865;32;317671;-74
2023/12/07 05:11:12;;;;;;;106.50;62.87;;;;;;;;;;4401158;32;318794;-74
2023/12/07 05:13:39;;;;;;;151.63;80.83;;;;;;;;;;4390988;32;319467;-75
2023/12/07 05:16:06;;;;;;;159.70;90.33;;;;;;;;;;4401297;32;319576;-75
2023/12/07 05:18:33;;;;;;;189.47;105.93;;;;;;;;;;4389768;32;319389;-74
2023/12/07 05:21:01;;;;;;;199.93;105.23;;;;;;;;;;4402785;32;319737;-75
2023/12/07 05:23:28;;;;;;;192.70;95.30;;;;;;;;;;4392545;32;320516;-73
2023/12/07 05:25:55;;;;;;;183.93;91.77;;;;;;;;;;4402599;32;319691;-74
2023/12/07 05:28:23;;;;;;;158.23;84.60;;;;;;;;;;4392899;32;319496;-75
2023/12/07 05:30:50;;;;;;;140.23;78.10;;;;;;;;;;4403950;32;319563;-74
2023/12/07 05:33:17;;;;;;;117.17;66.60;;;;;;;;;;4404412;32;319363;-74
2023/12/07 05:35:44;;;;;;;108.20;62.00;;;;;;;;;;4393459;32;318857;-74
2023/12/07 05:38:12;;;;;;;99.03;60.30;;;;;;;;;;4402735;32;319548;-75
2023/12/07 05:40:39;;;;;;;98.47;60.87;;;;;;;;;;4391932;32;318511;-73
2023/12/07 05:43:07;;;;;;;101.03;61.90;;;;;;;;;;4402463;32;317813;-74
2023/12/07 05:45:34;;;;;;;91.73;56.47;;;;;;;;;;4391198;32;319009;-73
2023/12/07 05:48:01;;;;;;;94.17;58.10;;;;;;;;;;4402828;32;318299;-75
2023/12/07 05:50:28;;;;;;;94.57;58.93;;;;;;;;;;4392269;32;318606;-74
2023/12/07 05:52:55;;;;;;;100.50;60.67;;;;;;;;;;4402437;32;318634;-75
2023/12/07 05:55:24;;;;;;;96.60;58.47;;;;;;;;;;4391649;32;319498;-72
2023/12/07 05:57:51;;;;;;;77.00;49.83;;;;;;;;;;4403760;32;318546;-73
2023/12/07 06:00:19;;;;;;;87.67;47.50;;;;;;;;;;4403616;32;318449;-73
2023/12/07 06:02:45;;;;;;;76.13;47.10;;;;;;;;;;4388988;32;418072;-74
2023/12/07 06:05:12;;;;;;;71.53;44.67;;;;;;;;;;4401759;32;318529;-74
2023/12/07 06:07:42;;;;;;;70.37;43.13;;;;;;;;;;4390611;32;352810;-74
2023/12/07 06:10:10;;;;;;;75.43;44.00;;;;;;;;;;4402894;32;318626;-73
2023/12/07 06:12:39;;;;;;;89.53;52.97;;;;;;;;;;4391597;32;318444;-75
2023/12/07 06:15:07;;;;;;;75.53;48.53;;;;;;;;;;4403024;32;318340;-75
2023/12/07 06:17:35;;;;;;;89.43;52.23;;;;;;;;;;4391879;32;318584;-74
2023/12/07 06:20:03;;;;;;;83.20;50.07;;;;;;;;;;4403165;32;318413;-75
2023/12/07 06:22:30;;;;;;;86.27;48.90;;;;;;;;;;4392934;32;318667;-74
2023/12/07 06:25:00;;;;;;;76.63;46.50;;;;;;;;;;4402034;32;318502;-74
2023/12/07 06:27:27;;;;;;;81.97;49.27;;;;;;;;;;4390962;32;341603;-73
2023/12/07 06:29:56;;;;;;;94.73;49.33;;;;;;;;;;4401491;32;328638;-73
2023/12/07 06:32:23;;;;;;;84.10;50.43;;;;;;;;;;4391427;32;318537;-74
2023/12/07 06:34:50;;;;;;;86.67;52.20;;;;;;;;;;4401816;32;318430;-73
2023/12/07 06:37:21;;;;;;;89.47;54.33;;;;;;;;;;4401526;32;318377;-73
2023/12/07 06:39:48;;;;;;;90.60;55.60;;;;;;;;;;4389366;32;417235;-75
2023/12/07 06:42:15;;;;;;;91.83;56.90;;;;;;;;;;4402508;32;317503;-73
2023/12/07 06:44:44;;;;;;;103.83;62.23;;;;;;;;;;4392560;32;318396;-73
2023/12/07 06:47:14;;;;;;;84.93;53.10;;;;;;;;;;4401315;32;319354;-74
2023/12/07 06:49:41;;;;;;;100.67;64.57;;;;;;;;;;4392496;32;318499;-74
2023/12/07 06:52:08;;;;;;;88.57;58.43;;;;;;;;;;4402722;32;319231;-76
2023/12/07 06:54:35;;;;;;;92.17;55.30;;;;;;;;;;4392167;32;335287;-74
2023/12/07 06:57:02;;;;;;;103.67;63.27;;;;;;;;;;4401392;32;318490;-74
2023/12/07 06:59:29;;;;;;;113.57;69.87;;;;;;;;;;4390902;32;319707;-73
2023/12/07 07:01:56;;;;;;;111.87;67.50;;;;;;;;;;4402038;32;319968;-75
2023/12/07 07:04:24;;;;;;;89.03;55.10;;;;;;;;;;4391832;32;319752;-76
2023/12/07 07:06:52;;;;;;;67.20;43.30;;;;;;;;;;4401091;32;318404;-74
2023/12/07 07:09:19;;;;;;;68.27;44.23;;;;;;;;;;4402050;32;317760;-74
2023/12/07 07:11:48;;;;;;;58.90;37.57;;;;;;;;;;4388592;32;417673;-74
2023/12/07 07:14:15;;;;;;;60.23;36.97;;;;;;;;;;4402553;32;318059;-73
2023/12/07 07:16:42;;;;;;;48.00;32.87;;;;;;;;;;4391510;32;318295;-74
2023/12/07 07:19:09;;;;;;;43.90;30.53;;;;;;;;;;4401024;32;318639;-74
2023/12/07 07:21:38;;;;;;;34.63;22.90;;;;;;;;;;4390712;32;318739;-74
2023/12/07 07:24:05;;;;;;;44.07;30.33;;;;;;;;;;4401888;32;317654;-75
2023/12/07 07:26:32;;;;;;;57.40;34.13;;;;;;;;;;4391892;32;318342;-74
2023/12/07 07:28:59;;;;;;;57.00;37.63;;;;;;;;;;4402103;32;318269;-74
2023/12/07 07:31:26;;;;;;;60.87;38.03;;;;;;;;;;4391462;32;318337;-73
2023/12/07 07:33:53;;;;;;;49.73;31.30;;;;;;;;;;4401814;32;318311;-74
2023/12/07 07:36:20;;;;;;;53.30;34.80;;;;;;;;;;4400604;32;318434;-74
2023/12/07 07:38:48;;;;;;;69.23;45.63;;;;;;;;;;4387311;32;417975;-74
2023/12/07 07:41:15;;;;;;;52.53;32.87;;;;;;;;;;4400773;32;348818;-72
2023/12/07 07:43:42;;;;;;;44.17;28.70;;;;;;;;;;4389097;32;325254;-72
2023/12/07 07:46:09;;;;;;;30.50;21.83;;;;;;;;;;4400461;32;318417;-73
2023/12/07 07:48:37;;;;;;;43.23;27.27;;;;;;;;;;4390193;32;318750;-73
2023/12/07 07:51:04;;;;;;;39.50;25.73;;;;;;;;;;4400866;32;318568;-73
2023/12/07 07:53:31;;;;;;;35.63;24.90;;;;;;;;;;4391448;32;318480;-73
2023/12/07 07:55:59;;;;;;;42.40;24.83;;;;;;;;;;4401425;32;318623;-73
2023/12/07 07:58:26;;;;;;;48.47;28.97;;;;;;;;;;4391329;32;318559;-71
2023/12/07 08:00:53;;;;;;;41.20;29.00;;;;;;;;;;4401617;32;317949;-72
2023/12/07 08:03:20;;;;;;;43.23;27.10;;;;;;;;;;4401587;32;318526;-73
2023/12/07 08:05:47;;;;;;;43.20;28.30;;;;;;;;;;4388464;32;418076;-73
2023/12/07 08:08:14;;;;;;;37.93;26.43;;;;;;;;;;4401439;32;318229;-75
2023/12/07 08:10:41;;;;;;;35.30;25.03;;;;;;;;;;4390909;32;318705;-74
2023/12/07 08:13:09;;;;;;;43.97;28.87;;;;;;;;;;4400398;32;318716;-76
2023/12/07 08:15:38;;;;;;;53.00;31.73;;;;;;;;;;4390675;32;318151;-72
2023/12/07 08:18:05;;;;;;;54.70;31.93;;;;;;;;;;4401453;32;318118;-72
2023/12/07 08:20:32;;;;;;;46.50;30.60;;;;;;;;;;4391346;32;318677;-73
2023/12/07 08:22:59;;;;;;;46.13;30.97;;;;;;;;;;4401784;32;318874;-73
2023/12/07 08:25:26;;;;;;;53.03;34.20;;;;;;;;;;4390697;32;317974;-72
2023/12/07 08:27:53;;;;;;;49.30;34.70;;;;;;;;;;4401549;32;318779;-73
2023/12/07 08:30:22;;;;;;;53.73;39.07;;;;;;;;;;4401187;32;318847;-73
2023/12/07 08:32:48;;;;;;;57.17;35.83;;;;;;;;;;4387177;32;417631;-74
2023/12/07 08:35:15;;;;;;;53.47;33.70;;;;;;;;;;4399938;32;318676;-73
2023/12/07 08:37:42;;;;;;;43.60;30.23;;;;;;;;;;4389873;32;318676;-72
2023/12/07 08:40:15;;;;;;;45.77;31.63;;;;;;;;;;4399454;32;318551;-73
2023/12/07 08:42:42;;;;;;;56.17;35.27;;;;;;;;;;4391246;32;318823;-75
2023/12/07 08:45:13;;;;;;;58.43;38.13;;;;;;;;;;4401069;32;318844;-74
2023/12/07 08:47:42;;;;;;;56.80;37.23;;;;;;;;;;4389871;32;318759;-73
2023/12/07 08:50:10;;;;;;;54.60;38.50;;;;;;;;;;4400298;32;342251;-75
2023/12/07 08:52:37;;;;;;;52.90;35.27;;;;;;;;;;4390830;32;318670;-74
2023/12/07 08:55:04;;;;;;;50.50;30.57;;;;;;;;;;4401615;32;317810;-74
2023/12/07 08:57:31;;;;;;;65.70;39.80;;;;;;;;;;4393342;32;318810;-74
2023/12/07 08:59:59;;;;;;;50.30;34.27;;;;;;;;;;4404281;32;318548;-74
2023/12/07 09:02:26;;;;;;;55.20;35.60;;;;;;;;;;4394491;32;320193;-73
2023/12/07 09:04:54;;;;;;;34.30;25.33;;;;;;;;;;4403682;32;318802;-74
2023/12/07 09:07:21;;;;;;;39.67;25.90;;;;;;;;;;4402669;32;318753;-74
2023/12/07 09:09:48;;;;;;;52.97;32.07;;;;;;;;;;4392142;32;337238;-74
2023/12/07 09:12:15;;;;;;;44.37;30.73;;;;;;;;;;4404272;32;318521;-74
2023/12/07 09:14:42;;;;;;;39.80;26.50;;;;;;;;;;4392635;32;317841;-75
2023/12/07 09:17:09;;;;;;;25.80;18.53;;;;;;;;;;4402951;32;318554;-74
2023/12/07 09:19:36;;;;;;;19.40;14.20;;;;;;;;;;4392747;32;318025;-75
2023/12/07 09:22:05;;;;;;;17.20;13.20;;;;;;;;;;4402802;32;318552;-74
2023/12/07 09:24:32;;;;;;;18.10;14.00;;;;;;;;;;4394119;32;318724;-74
2023/12/07 09:26:59;;;;;;;20.10;14.33;;;;;;;;;;4404065;32;318708;-75
2023/12/07 09:29:26;;;;;;;20.33;12.43;;;;;;;;;;4394009;32;318560;-73
2023/12/07 09:31:53;;;;;;;23.87;16.57;;;;;;;;;;4403725;32;318714;-74
2023/12/07 09:34:20;;;;;;;13.47;10.50;;;;;;;;;;4403816;32;317978;-74
2023/12/07 09:36:47;;;;;;;9.50;7.73;;;;;;;;;;4393318;32;318432;-74
2023/12/07 09:39:16;;;;;;;10.20;7.50;;;;;;;;;;4404216;32;316665;-74
2023/12/07 09:41:47;;;;;;;93.57;41.40;;;;;;;;;;4392633;32;317540;-74
2023/12/07 09:44:14;;;;;;;13.70;9.97;;;;;;;;;;4403784;32;318735;-74
2023/12/07 09:46:41;;;;;;;13.33;9.03;;;;;;;;;;4393764;32;317799;-75
2023/12/07 09:49:08;;;;;;;15.63;10.23;;;;;;;;;;4406324;32;317725;-74
2023/12/07 09:51:36;;;;;;;41.40;23.73;;;;;;;;;;4395160;32;319015;-77
2023/12/07 09:54:05;;;;;;;35.57;20.43;;;;;;;;;;4402706;32;318749;-73
2023/12/07 09:56:33;;;;;;;21.47;14.20;;;;;;;;;;4392869;32;318291;-73
2023/12/07 09:59:00;;;;;;;31.50;21.17;;;;;;;;;;4402198;32;318490;-74
2023/12/07 10:01:30;;;;;;;18.30;12.23;;;;;;;;;;4392019;32;318645;-72
2023/12/07 10:04:18;;;;;;;12.77;10.03;;;;;;;;;;4403400;32;318433;-74
2023/12/07 10:06:46;;;;;;;7.77;6.57;;;;;;;;;;4392433;32;318640;-76
2023/12/07 10:09:13;;;;;;;14.13;8.17;;;;;;;;;;4402371;32;316245;-75
2023/12/07 10:11:43;;;;;;;15.50;6.47;;;;;;;;;;4392385;32;316424;-74
2023/12/07 10:14:10;;;;;;;25.07;15.93;;;;;;;;;;4402441;32;317794;-75
2023/12/07 10:16:37;;;;;;;9.23;6.23;;;;;;;;;;4392032;32;318258;-75
2023/12/07 10:19:17;;;;;;;7.80;5.87;;;;;;;;;;4400005;32;352194;-74
2023/12/07 10:21:44;;;;;;;6.43;5.50;;;;;;;;;;4391834;32;316369;-74
2023/12/07 10:24:11;;;;;;;7.60;4.03;;;;;;;;;;4402078;32;328147;-74
2023/12/07 10:26:39;;;;;;;11.70;8.07;;;;;;;;;;4391694;32;316217;-74
2023/12/07 10:29:08;;;;;;;11.87;6.83;;;;;;;;;;4401757;32;354364;-75
2023/12/07 10:31:35;;;;;;;11.77;8.83;;;;;;;;;;4392633;32;317592;-74
2023/12/07 10:34:02;;;;;;;8.43;7.10;;;;;;;;;;4402697;32;317624;-75
2023/12/07 10:36:29;;;;;;;9.70;7.20;;;;;;;;;;4392889;32;317328;-74
2023/12/07 10:38:56;;;;;;;7.47;5.90;;;;;;;;;;4401995;32;334244;-75
2023/12/07 10:41:25;;;;;;;11.23;8.73;;;;;;;;;;4401698;32;317377;-74
2023/12/07 10:44:00;;;;;;;9.67;5.93;;;;;;;;;;4389680;32;419651;-75
2023/12/07 10:46:30;;;;;;;4.03;3.27;;;;;;;;;;4392743;32;317514;-75
2023/12/07 10:49:02;;;;;;;13.40;9.03;;;;;;;;;;4402524;32;317229;-75
2023/12/07 10:51:32;;;;;;;8.40;6.40;;;;;;;;;;4391160;32;317255;-76
2023/12/07 10:54:03;;;;;;;6.17;4.97;;;;;;;;;;4401561;32;315582;-76
2023/12/07 10:56:40;;;;;;;17.07;11.50;;;;;;;;;;4391419;32;316412;-73
2023/12/07 10:59:10;;;;;;;6.03;5.40;;;;;;;;;;4402391;32;318572;-75
2023/12/07 11:01:39;;;;;;;6.80;4.70;;;;;;;;;;4391241;32;316253;-75
2023/12/07 11:04:08;;;;;;;9.40;5.97;;;;;;;;;;4401878;32;335390;-76
2023/12/07 11:06:36;;;;;;;8.40;6.63;;;;;;;;;;4390837;32;315659;-75
2023/12/07 11:09:08;;;;;;;11.50;7.63;;;;;;;;;;4402193;32;316400;-74
2023/12/07 11:11:42;;;;;;;5.53;4.27;;;;;;;;;;4389965;32;345336;-74
2023/12/07 11:14:11;;;;;;;5.73;3.97;;;;;;;;;;4402304;32;316243;-75
2023/12/07 11:16:42;;;;;;;6.37;5.53;;;;;;;;;;4392100;32;316428;-75
2023/12/07 11:19:45;;;;;;;8.07;6.03;;;;;;;;;;4402242;32;316429;-74
2023/12/07 11:22:13;;;;;;;9.03;5.87;;;;;;;;;;4389425;32;418258;-73
2023/12/07 11:24:53;;;;;;;7.50;5.30;;;;;;;;;;4390620;32;326624;-75
2023/12/07 11:27:20;;;;;;;4.27;3.63;;;;;;;;;;4400675;32;324935;-73
2023/12/07 11:29:48;;;;;;;6.57;3.90;;;;;;;;;;4390603;32;315591;-74
2023/12/07 11:32:17;;;;;;;8.23;4.63;;;;;;;;;;4401940;32;316432;-76
2023/12/07 11:34:45;;;;;;;10.03;6.07;;;;;;;;;;4391957;32;316342;-76
2023/12/07 11:37:15;;;;;;;13.17;8.13;;;;;;;;;;4401986;32;317461;-74
2023/12/07 11:39:45;;;;;;;10.13;7.50;;;;;;;;;;4390232;32;317585;-75
2023/12/07 11:42:13;;;;;;;10.93;7.47;;;;;;;;;;4400596;32;317373;-75
2023/12/07 11:44:44;;;;;;;12.00;8.53;;;;;;;;;;4390133;32;317353;-74
2023/12/07 11:47:16;;;;;;;24.90;14.07;;;;;;;;;;4401689;32;317553;-76
2023/12/07 11:49:44;;;;;;;27.40;15.63;;;;;;;;;;4391465;32;319093;-74
2023/12/07 11:52:16;;;;;;;21.67;12.93;;;;;;;;;;4399726;32;317942;-75
2023/12/07 11:54:47;;;;;;;21.13;11.40;;;;;;;;;;4391750;32;318639;-75
2023/12/07 11:57:15;;;;;;;19.93;10.47;;;;;;;;;;4401418;32;318961;-75
2023/12/07 11:59:43;;;;;;;12.17;6.70;;;;;;;;;;4391100;32;318562;-76
2023/12/07 12:02:11;;;;;;;8.57;5.90;;;;;;;;;;4401828;32;317377;-74
2023/12/07 12:04:39;;;;;;;7.07;4.77;;;;;;;;;;4391511;32;316551;-76
2023/12/07 12:07:07;;;;;;;22.83;11.97;;;;;;;;;;4400677;32;316491;-75
2023/12/07 12:09:35;;;;;;;6.73;5.10;;;;;;;;;;4390416;32;318520;-75
2023/12/07 12:12:02;;;;;;;9.23;6.67;;;;;;;;;;4400451;32;315656;-75
2023/12/07 12:14:29;;;;;;;4.33;3.27;;;;;;;;;;4390502;32;316288;-74
2023/12/07 12:16:56;;;;;;;10.07;5.50;;;;;;;;;;4400322;32;316316;-75
2023/12/07 12:19:24;;;;;;;5.73;4.07;;;;;;;;;;4400944;32;317280;-75
2023/12/07 12:21:51;;;;;;;6.97;4.27;;;;;;;;;;4387731;32;415862;-76
2023/12/07 12:24:19;;;;;;;7.90;5.43;;;;;;;;;;4401189;32;315877;-75
2023/12/07 12:26:47;;;;;;;7.20;4.90;;;;;;;;;;4391408;32;315883;-77
2023/12/07 12:29:15;;;;;;;8.83;5.77;;;;;;;;;;4401010;32;316653;-75
2023/12/07 12:31:42;;;;;;;10.37;6.23;;;;;;;;;;4391161;32;316449;-75
2023/12/07 12:34:12;;;;;;;17.23;10.53;;;;;;;;;;4401287;32;317595;-76
2023/12/07 12:36:39;;;;;;;14.57;8.00;;;;;;;;;;4391042;32;318439;-73
2023/12/07 12:39:08;;;;;;;13.83;7.93;;;;;;;;;;4401279;32;317849;-74
2023/12/07 12:41:39;;;;;;;16.63;11.60;;;;;;;;;;4390567;32;317480;-75
2023/12/07 12:44:08;;;;;;;16.77;9.37;;;;;;;;;;4400094;32;317762;-75
2023/12/07 12:46:37;;;;;;;15.10;9.13;;;;;;;;;;4389307;32;340824;-73
2023/12/07 12:49:04;;;;;;;7.93;6.20;;;;;;;;;;4401426;32;316577;-75
2023/12/07 12:51:32;;;;;;;5.27;4.00;;;;;;;;;;4391122;32;315994;-73
2023/12/07 12:54:00;;;;;;;4.70;3.97;;;;;;;;;;4401026;32;316428;-75
2023/12/07 12:56:28;;;;;;;5.67;4.17;;;;;;;;;;4391200;32;316540;-74
2023/12/07 12:58:57;;;;;;;5.33;3.67;;;;;;;;;;4401369;32;316280;-74
2023/12/07 13:01:27;;;;;;;8.90;5.67;;;;;;;;;;4401209;32;316529;-75
2023/12/07 13:03:54;;;;;;;8.33;5.37;;;;;;;;;;4388383;32;416679;-75
2023/12/07 13:06:24;;;;;;;7.50;5.20;;;;;;;;;;4400290;32;315899;-75
2023/12/07 13:08:54;;;;;;;9.87;5.20;;;;;;;;;;4387698;32;414683;-74
2023/12/07 13:11:21;;;;;;;8.80;4.30;;;;;;;;;;4400096;32;316239;-76
2023/12/07 13:13:49;;;;;;;10.10;4.60;;;;;;;;;;4390470;32;335106;-75
2023/12/07 13:16:17;;;;;;;10.97;6.47;;;;;;;;;;4400334;32;317547;-74
2023/12/07 13:18:44;;;;;;;17.07;6.90;;;;;;;;;;4390705;32;317366;-75
2023/12/07 13:21:11;;;;;;;8.23;4.87;;;;;;;;;;4401187;32;317524;-75
2023/12/07 13:23:38;;;;;;;9.17;6.03;;;;;;;;;;4391215;32;316579;-75
2023/12/07 13:26:06;;;;;;;9.63;5.97;;;;;;;;;;4401174;32;315756;-76
2023/12/07 13:28:33;;;;;;;6.20;4.53;;;;;;;;;;4389310;32;316783;-75
2023/12/07 13:31:00;;;;;;;8.97;5.33;;;;;;;;;;4401113;32;316229;-75
2023/12/07 13:33:28;;;;;;;7.00;4.00;;;;;;;;;;4391591;32;316170;-74
2023/12/07 13:35:56;;;;;;;13.40;8.00;;;;;;;;;;4396606;32;316586;-75
2023/12/07 13:38:28;;;;;;;5.73;4.27;;;;;;;;;;4407749;32;339403;-74
2023/12/07 13:40:56;;;;;;;4.80;3.90;;;;;;;;;;4388597;32;415716;-74
2023/12/07 13:43:24;;;;;;;7.67;5.60;;;;;;;;;;4403104;32;316349;-74
2023/12/07 13:45:51;;;;;;;2.67;2.00;;;;;;;;;;4389748;32;417164;-74
2023/12/07 13:48:18;;;;;;;3.33;2.70;;;;;;;;;;4402703;32;316425;-74
2023/12/07 13:50:46;;;;;;;5.23;3.83;;;;;;;;;;4391550;32;356415;-74
2023/12/07 13:53:13;;;;;;;10.70;6.63;;;;;;;;;;4404041;32;316445;-74
2023/12/07 13:55:40;;;;;;;8.33;5.70;;;;;;;;;;4392332;32;317507;-74
2023/12/07 13:58:07;;;;;;;6.80;5.00;;;;;;;;;;4403458;32;315748;-73
2023/12/07 14:00:34;;;;;;;12.23;8.00;;;;;;;;;;4393468;32;316596;-73
2023/12/07 14:03:01;;;;;;;6.20;4.40;;;;;;;;;;4403477;32;316595;-74
2023/12/07 14:05:28;;;;;;;9.13;6.37;;;;;;;;;;4393591;32;316474;-72
2023/12/07 14:07:56;;;;;;;13.90;7.57;;;;;;;;;;4401972;32;315708;-74
2023/12/07 14:10:24;;;;;;;9.20;4.40;;;;;;;;;;4403255;32;317509;-74
2023/12/07 14:12:52;;;;;;;7.07;4.37;;;;;;;;;;4389364;32;415465;-73